Time;durP1;ratioP1;P1;durP2;ratioP2;P2;SDS_P1;SDS_P2;PMS_P1;PMS_P2;Temp;Humidity;BMP_temperature;BMP_pressure;BME280_temperature;BME280_humidity;BME280_pressure;Samples;Min_cycle;Max_cycle;Signal;HPM_P1;HPM_P2
2022/12/24 00:00:07;;;;;;;1.05;0.60;;;16.40;1.00;;;;;;5052185;28;20098;-37
2022/12/24 00:02:33;;;;;;;21.83;1.10;;;16.40;1.00;;;;;;5052039;28;20048;-37
2022/12/24 00:05:00;;;;;;;1.20;0.65;;;16.40;1.00;;;;;;5051843;28;20080;-37
2022/12/24 00:07:28;;;;;;;1.38;0.65;;;16.40;1.00;;;;;;5051948;28;20041;-37
2022/12/24 00:09:55;;;;;;;1.25;0.63;;;16.40;1.00;;;;;;5051865;28;20056;-37
2022/12/24 00:12:21;;;;;;;1.10;0.60;;;16.40;1.00;;;;;;5051715;28;20045;-37
2022/12/24 00:14:48;;;;;;;1.10;0.68;;;16.40;1.00;;;;;;5051634;28;20037;-37
2022/12/24 00:17:15;;;;;;;0.50;0.35;;;16.30;1.00;;;;;;5051765;28;20045;-36
2022/12/24 00:19:42;;;;;;;1.15;0.40;;;16.30;1.00;;;;;;5051792;28;20037;-36
2022/12/24 00:22:09;;;;;;;0.65;0.45;;;16.30;1.00;;;;;;5051782;28;20072;-36
2022/12/24 00:24:36;;;;;;;0.80;0.45;;;16.30;1.00;;;;;;5051485;28;20041;-37
2022/12/24 00:27:04;;;;;;;1.02;0.30;;;16.30;1.00;;;;;;5051958;28;20044;-37
2022/12/24 00:29:32;;;;;;;0.50;0.20;;;16.30;1.00;;;;;;5052055;28;20041;-37
2022/12/24 00:31:59;;;;;;;1.60;0.60;;;16.30;1.00;;;;;;5051836;28;20377;-37
2022/12/24 00:34:26;;;;;;;2.03;0.77;;;16.30;1.00;;;;;;5051485;28;20041;-37
2022/12/24 00:36:52;;;;;;;1.42;0.60;;;16.30;1.00;;;;;;5051813;28;20041;-37
2022/12/24 00:39:19;;;;;;;2.00;0.60;;;16.20;1.00;;;;;;5051957;28;20033;-39
2022/12/24 00:41:46;;;;;;;2.15;0.95;;;16.20;1.00;;;;;;5052253;28;20033;-37
2022/12/24 00:44:13;;;;;;;4.18;0.68;;;16.20;1.00;;;;;;5051133;28;20047;-37
2022/12/24 00:46:40;;;;;;;2.45;0.40;;;16.20;1.00;;;;;;5051510;28;20041;-36
2022/12/24 00:49:08;;;;;;;1.48;0.50;;;16.20;1.00;;;;;;5034138;28;20049;-37
2022/12/24 00:51:36;;;;;;;1.55;0.68;;;16.20;1.00;;;;;;5051599;28;20072;-37
2022/12/24 00:54:03;;;;;;;1.63;0.60;;;16.20;1.00;;;;;;5051049;28;20075;-37
2022/12/24 00:56:30;;;;;;;2.33;0.43;;;16.20;1.00;;;;;;5051430;28;20079;-37
2022/12/24 00:58:57;;;;;;;1.40;0.50;;;16.10;1.00;;;;;;5051319;28;20124;-36
2022/12/24 01:01:25;;;;;;;3.10;0.60;;;16.10;1.00;;;;;;5051400;28;20041;-36
2022/12/24 01:05:08;;;;;;;1.60;0.30;;;16.10;1.00;;;;;;5051125;28;20041;-37
2022/12/24 01:06:39;;;;;;;3.00;0.63;;;16.10;1.00;;;;;;5051728;28;20037;-37
2022/12/24 01:09:06;;;;;;;3.63;0.55;;;16.10;1.00;;;;;;5055085;28;20102;-37
2022/12/24 01:11:32;;;;;;;4.63;0.80;;;16.10;1.00;;;;;;5055120;28;20053;-37
2022/12/24 01:13:59;;;;;;;3.88;0.73;;;16.10;1.00;;;;;;5054882;28;20079;-37
2022/12/24 01:16:26;;;;;;;2.90;0.90;;;16.10;1.00;;;;;;5055070;28;20041;-37
2022/12/24 01:18:53;;;;;;;1.70;0.55;;;16.10;1.00;;;;;;5055000;28;20511;-37
2022/12/24 01:21:20;;;;;;;4.85;0.68;;;16.00;1.00;;;;;;5055056;28;20045;-37
2022/12/24 01:23:46;;;;;;;2.65;0.90;;;16.00;1.00;;;;;;5054543;28;20555;-37
2022/12/24 01:26:13;;;;;;;3.78;0.80;;;16.00;1.00;;;;;;5054811;28;20044;-36
2022/12/24 01:28:40;;;;;;;1.77;0.70;;;16.00;1.00;;;;;;5054891;28;20098;-36
2022/12/24 01:31:18;;;;;;;3.22;0.85;;;16.00;1.00;;;;;;5054850;28;20091;-36
2022/12/24 01:33:45;;;;;;;5.43;0.98;;;16.00;1.00;;;;;;5054425;28;20091;-37
2022/12/24 01:36:13;;;;;;;5.65;0.90;;;16.00;1.00;;;;;;5054436;28;20045;-37
2022/12/24 01:38:40;;;;;;;4.63;1.65;;;16.00;1.00;;;;;;5054594;28;20458;-37
2022/12/24 01:44:14;;;;;;;3.28;0.80;;;15.90;1.00;;;;;;5054364;28;20037;-37
2022/12/24 01:46:42;;;;;;;2.70;1.05;;;15.90;1.00;;;;;;5054596;28;20040;-38
2022/12/24 01:49:12;;;;;;;6.68;1.40;;;15.90;1.00;;;;;;5054468;28;20750;-38
2022/12/24 01:51:42;;;;;;;7.47;1.30;;;15.90;1.00;;;;;;5054464;28;20505;-37
2022/12/24 01:54:16;;;;;;;6.55;1.08;;;15.90;1.00;;;;;;5053993;28;20071;-38
2022/12/24 01:56:49;;;;;;;2.88;0.77;;;15.90;1.00;;;;;;5036497;28;20061;-37
2022/12/24 01:59:17;;;;;;;;;;;15.80;1.00;;;;;;5054585;28;20098;-37
2022/12/24 02:01:49;;;;;;;6.07;1.20;;;15.80;1.00;;;;;;5054244;28;19921;-38
2022/12/24 02:04:36;;;;;;;6.00;1.15;;;15.80;1.00;;;;;;5053865;28;20045;-38
2022/12/24 02:07:03;;;;;;;3.75;1.17;;;15.80;1.00;;;;;;5054153;28;20033;-37
2022/12/24 02:09:32;;;;;;;6.90;1.52;;;15.80;1.00;;;;;;5053975;28;20045;-38
2022/12/24 02:11:59;;;;;;;2.97;1.00;;;15.80;1.00;;;;;;5036245;28;20079;-37
2022/12/24 02:14:27;;;;;;;5.20;0.93;;;15.80;1.00;;;;;;5053690;28;20550;-37
2022/12/24 02:17:00;;;;;;;5.38;1.50;;;15.80;1.00;;;;;;5054078;28;20427;-38
2022/12/24 02:19:59;;;;;;;6.38;1.98;;;15.80;1.00;;;;;;5053904;28;20080;-38
2022/12/24 02:22:40;;;;;;;5.43;1.08;;;15.80;1.00;;;;;;5053573;28;20045;-38
2022/12/24 02:25:35;;;;;;;5.90;1.23;;;15.70;1.00;;;;;;5053964;28;20048;-38
2022/12/24 02:28:40;;;;;;;4.82;1.08;;;15.70;1.00;;;;;;5053741;28;20049;-38
2022/12/24 02:31:32;;;;;;;8.73;1.23;;;15.70;1.00;;;;;;5013014;28;20048;-38
2022/12/24 02:34:02;;;;;;;8.70;1.23;;;15.70;1.00;;;;;;5053382;28;20050;-38
2022/12/24 02:36:39;;;;;;;7.75;1.63;;;15.70;1.00;;;;;;5053584;28;20049;-38
2022/12/24 02:39:19;;;;;;;5.72;1.40;;;15.70;1.00;;;;;;5053523;28;20041;-37
2022/12/24 02:42:07;;;;;;;12.02;2.13;;;15.70;1.00;;;;;;5053448;28;20049;-38
2022/12/24 02:45:00;;;;;;;3.80;1.40;;;15.70;1.00;;;;;;5053213;28;20119;-37
2022/12/24 02:47:28;;;;;;;3.55;1.10;;;15.70;1.00;;;;;;5045270;28;20056;-38
2022/12/24 02:50:00;;;;;;;8.73;1.90;;;15.60;1.00;;;;;;5053377;28;20120;-38
2022/12/24 02:52:37;;;;;;;8.93;1.45;;;15.60;1.00;;;;;;5053158;28;20044;-38
2022/12/24 02:55:13;;;;;;;5.88;1.65;;;15.60;1.00;;;;;;5053224;28;20049;-38
2022/12/24 02:58:14;;;;;;;7.00;1.10;;;15.60;1.00;;;;;;5053417;28;20049;-38
2022/12/24 03:01:17;;;;;;;11.05;1.90;;;15.60;1.00;;;;;;5053262;28;20041;-39
2022/12/24 03:03:47;;;;;;;4.53;1.20;;;15.60;1.00;;;;;;5052778;28;20045;-38
2022/12/24 03:06:21;;;;;;;9.38;1.27;;;15.60;1.00;;;;;;5052868;28;20044;-38
2022/12/24 03:09:01;;;;;;;6.05;1.42;;;15.60;1.00;;;;;;5053205;28;20076;-36
2022/12/24 03:11:28;;;;;;;4.90;1.17;;;15.60;1.00;;;;;;5052885;28;20099;-36
2022/12/24 03:13:58;;;;;;;8.40;0.98;;;15.60;1.00;;;;;;5052699;28;20077;-37
2022/12/24 03:16:26;;;;;;;7.82;1.95;;;15.60;1.00;;;;;;5052717;28;20049;-37
2022/12/24 03:18:56;;;;;;;7.80;1.20;;;15.60;1.00;;;;;;5052845;28;20067;-37
2022/12/24 03:21:30;;;;;;;3.83;2.00;;;15.60;1.00;;;;;;5052563;28;20133;-38
2022/12/24 03:23:58;;;;;;;7.72;1.95;;;15.50;1.00;;;;;;5052425;28;20048;-37
2022/12/24 03:26:27;;;;;;;7.82;1.55;;;15.50;1.00;;;;;;5052614;28;20068;-37
2022/12/24 03:28:54;;;;;;;11.02;1.60;;;15.50;1.00;;;;;;5052596;28;20048;-38
2022/12/24 03:31:21;;;;;;;7.28;1.70;;;15.50;1.00;;;;;;5052101;28;20115;-38
2022/12/24 03:33:48;;;;;;;7.13;2.22;;;15.50;1.00;;;;;;5052162;28;20045;-38
2022/12/24 03:36:15;;;;;;;7.55;1.55;;;15.50;1.00;;;;;;5052221;28;20049;-37
2022/12/24 03:38:42;;;;;;;11.57;2.28;;;15.50;1.00;;;;;;5052331;28;20044;-37
2022/12/24 03:41:09;;;;;;;8.98;2.03;;;15.50;1.00;;;;;;5052355;28;20037;-38
2022/12/24 03:43:36;;;;;;;3.83;0.93;;;15.50;1.00;;;;;;5051931;28;20480;-37
2022/12/24 03:46:05;;;;;;;9.25;1.55;;;15.50;1.00;;;;;;5052143;28;20102;-38
2022/12/24 03:48:34;;;;;;;6.75;1.15;;;15.50;1.00;;;;;;5052296;28;20039;-37
2022/12/24 03:51:02;;;;;;;3.85;1.05;;;15.50;1.00;;;;;;5052057;28;20041;-38
2022/12/24 03:53:28;;;;;;;6.28;1.33;;;15.50;1.00;;;;;;5051919;28;20094;-37
2022/12/24 03:55:55;;;;;;;4.97;1.45;;;15.40;1.00;;;;;;5051880;28;20033;-38
2022/12/24 03:58:22;;;;;;;6.07;1.83;;;15.40;1.00;;;;;;5052090;28;20400;-37
2022/12/24 04:00:48;;;;;;;5.70;1.10;;;15.40;1.00;;;;;;5051834;28;20041;-37
2022/12/24 04:03:15;;;;;;;7.75;1.58;;;15.40;1.00;;;;;;5033899;28;20041;-37
2022/12/24 04:05:42;;;;;;;8.18;1.63;;;15.40;1.00;;;;;;5051760;28;20045;-38
2022/12/24 04:08:09;;;;;;;11.07;2.67;;;15.40;1.00;;;;;;5051960;28;20068;-37
2022/12/24 04:10:35;;;;;;;5.78;1.83;;;15.40;1.00;;;;;;5051708;28;20049;-38
2022/12/24 04:13:02;;;;;;;4.13;1.10;;;15.40;1.00;;;;;;5051724;28;20045;-37
2022/12/24 04:15:29;;;;;;;8.10;1.80;;;15.40;1.00;;;;;;5051457;28;20095;-38
2022/12/24 04:17:56;;;;;;;5.85;1.40;;;15.40;1.00;;;;;;5051210;28;20036;-38
2022/12/24 04:20:22;;;;;;;6.07;1.75;;;15.40;1.00;;;;;;5051663;28;20118;-37
2022/12/24 04:22:51;;;;;;;6.90;1.50;;;15.40;1.00;;;;;;5051319;28;20033;-38
2022/12/24 04:25:18;;;;;;;7.35;1.70;;;15.40;1.00;;;;;;5065293;28;20032;-38
2022/12/24 04:27:44;;;;;;;4.20;1.55;;;15.40;1.00;;;;;;5085707;28;20049;-37
2022/12/24 04:30:11;;;;;;;8.95;1.77;;;15.30;1.00;;;;;;5070748;28;20063;-37
2022/12/24 04:32:38;;;;;;;8.13;2.03;;;15.30;1.00;;;;;;5091547;28;20044;-37
2022/12/24 04:35:05;;;;;;;9.20;1.48;;;15.40;1.00;;;;;;5090114;28;20048;-37
2022/12/24 04:37:33;;;;;;;4.50;0.93;;;15.30;1.00;;;;;;5083253;28;20044;-38
2022/12/24 04:39:59;;;;;;;6.65;2.75;;;15.40;1.00;;;;;;5091862;28;20047;-38
2022/12/24 04:42:26;;;;;;;8.10;1.83;;;15.30;1.00;;;;;;5093445;28;20044;-37
2022/12/24 04:44:53;;;;;;;8.13;1.60;;;15.30;1.00;;;;;;5095865;28;20117;-37
2022/12/24 04:47:20;;;;;;;5.75;1.35;;;15.30;1.00;;;;;;5077915;28;20107;-37
2022/12/24 04:49:46;;;;;;;9.32;1.52;;;15.30;1.00;;;;;;5096096;28;20047;-38
2022/12/24 04:52:13;;;;;;;4.03;1.15;;;15.30;1.00;;;;;;5091423;28;20123;-37
2022/12/24 04:54:40;;;;;;;7.13;1.45;;;15.30;1.00;;;;;;5087696;28;20093;-37
2022/12/24 04:57:07;;;;;;;6.65;1.77;;;15.30;1.00;;;;;;5095706;28;20067;-37
2022/12/24 04:59:33;;;;;;;7.82;1.25;;;15.30;1.00;;;;;;5095502;28;20498;-37
2022/12/24 05:02:00;;;;;;;7.72;1.63;;;15.30;1.00;;;;;;5095600;28;20055;-36
2022/12/24 05:04:27;;;;;;;9.40;1.92;;;15.30;1.00;;;;;;5095071;28;20119;-36
2022/12/24 05:06:54;;;;;;;8.93;1.67;;;15.30;1.00;;;;;;5095450;28;20043;-36
2022/12/24 05:09:20;;;;;;;8.30;2.75;;;15.20;1.00;;;;;;5095534;28;20036;-36
2022/12/24 05:11:47;;;;;;;9.40;2.97;;;15.20;1.00;;;;;;5095446;28;20071;-36
2022/12/24 05:14:14;;;;;;;5.68;1.63;;;15.20;1.00;;;;;;5095099;28;20078;-36
2022/12/24 05:16:42;;;;;;;10.27;1.88;;;15.20;1.00;;;;;;5095385;28;20044;-37
2022/12/24 05:19:09;;;;;;;8.80;2.10;;;15.30;1.00;;;;;;5095126;28;20040;-37
2022/12/24 05:21:36;;;;;;;5.38;1.45;;;15.30;1.00;;;;;;5095303;28;20044;-37
2022/12/24 05:27:08;;;;;;;6.63;2.05;;;15.20;1.00;;;;;;5032647;28;20053;-38
2022/12/24 05:29:35;;;;;;;5.32;1.65;;;15.20;1.00;;;;;;5032519;28;20076;-37
2022/12/24 05:32:01;;;;;;;5.22;1.45;;;15.20;1.00;;;;;;5062394;28;20059;-37
2022/12/24 05:34:28;;;;;;;8.85;1.90;;;15.20;1.00;;;;;;5094681;28;20044;-37
2022/12/24 05:36:55;;;;;;;8.23;2.13;;;15.20;1.00;;;;;;5094930;28;20048;-37
2022/12/24 05:39:21;;;;;;;6.53;2.28;;;15.20;1.00;;;;;;5094810;28;20039;-37
2022/12/24 05:41:48;;;;;;;9.25;1.55;;;15.20;1.00;;;;;;5095093;28;20040;-37
2022/12/24 05:44:16;;;;;;;6.25;2.03;;;15.20;1.00;;;;;;5076195;28;20048;-37
2022/12/24 05:46:43;;;;;;;7.75;1.40;;;15.20;1.00;;;;;;5094703;28;20399;-37
2022/12/24 05:49:10;;;;;;;5.55;1.48;;;15.20;1.00;;;;;;5094687;28;20044;-37
2022/12/24 05:51:39;;;;;;;7.90;1.38;;;15.20;1.00;;;;;;5094761;28;20036;-37
2022/12/24 05:54:05;;;;;;;6.65;1.95;;;15.10;1.00;;;;;;5093925;28;20509;-37
2022/12/24 05:56:32;;;;;;;6.22;1.58;;;15.10;1.00;;;;;;5094501;28;20055;-37
2022/12/24 05:58:59;;;;;;;16.08;1.77;;;15.10;1.00;;;;;;5069116;28;20108;-37
2022/12/24 06:01:26;;;;;;;12.43;1.50;;;15.20;1.00;;;;;;5069773;28;20028;-37
2022/12/24 06:03:55;;;;;;;7.75;1.83;;;15.10;1.00;;;;;;5056169;28;20131;-37
2022/12/24 06:06:25;;;;;;;4.22;1.48;;;15.10;1.00;;;;;;5089469;22;20051;-35
2022/12/24 06:08:54;;;;;;;6.53;2.58;;;15.10;1.00;;;;;;5097355;28;20047;-35
2022/12/24 06:11:24;;;;;;;8.23;1.63;;;15.10;1.00;;;;;;5106137;28;20490;-35
2022/12/24 06:13:51;;;;;;;8.95;1.90;;;15.10;1.00;;;;;;5114334;28;20043;-35
2022/12/24 06:16:19;;;;;;;8.90;2.08;;;15.10;1.00;;;;;;5095684;28;20036;-35
2022/12/24 06:18:46;;;;;;;9.20;1.52;;;15.10;1.00;;;;;;5078907;28;20047;-35
2022/12/24 06:21:14;;;;;;;7.72;1.98;;;15.10;1.00;;;;;;5096735;28;20491;-35
2022/12/24 06:23:42;;;;;;;6.93;1.75;;;15.10;1.00;;;;;;5092669;28;20040;-35
2022/12/24 06:26:13;;;;;;;9.60;1.77;;;15.10;1.00;;;;;;5092968;28;20072;-35
2022/12/24 06:28:40;;;;;;;5.35;1.73;;;15.10;1.00;;;;;;5094587;28;20036;-35
2022/12/24 06:31:11;;;;;;;8.63;2.13;;;15.10;1.00;;;;;;5101876;28;20055;-36
2022/12/24 06:33:38;;;;;;;14.07;2.05;;;15.10;1.00;;;;;;5088502;28;20138;-35
2022/12/24 06:36:07;;;;;;;15.27;3.05;;;15.10;1.00;;;;;;5105476;28;20383;-35
2022/12/24 06:38:42;;;;;;;6.55;1.77;;;15.10;1.00;;;;;;5114201;28;20556;-35
2022/12/24 06:41:09;;;;;;;4.93;1.83;;;15.10;1.00;;;;;;5094041;28;20113;-35
2022/12/24 06:43:36;;;;;;;7.32;2.08;;;15.10;1.00;;;;;;5093581;28;20036;-35
2022/12/24 06:46:03;;;;;;;7.93;2.40;;;15.10;1.00;;;;;;5093580;28;20036;-35
2022/12/24 06:48:30;;;;;;;8.30;2.08;;;15.20;1.00;;;;;;5075652;28;20497;-35
2022/12/24 06:50:57;;;;;;;4.72;1.38;;;15.30;1.00;;;;;;5093020;28;20141;-35
2022/12/24 06:53:24;;;;;;;7.50;1.58;;;15.40;1.00;;;;;;5073988;28;20406;-36
2022/12/24 06:55:51;;;;;;;6.57;1.75;;;15.50;1.00;;;;;;5103253;28;20126;-35
2022/12/24 06:58:17;;;;;;;7.93;1.77;;;15.70;1.00;;;;;;5104199;28;20062;-36
2022/12/24 07:00:46;;;;;;;7.07;2.10;;;15.80;1.00;;;;;;5101563;28;20036;-35
2022/12/24 07:03:13;;;;;;;4.57;1.33;;;16.00;1.00;;;;;;5110108;28;20122;-35
2022/12/24 07:05:40;;;;;;;5.18;1.48;;;16.10;1.00;;;;;;5112631;28;20048;-35
2022/12/24 07:08:08;;;;;;;7.40;1.95;;;16.20;1.00;;;;;;5113567;28;20544;-35
2022/12/24 07:10:34;;;;;;;17.45;2.25;;;16.30;1.00;;;;;;5113513;28;20050;-35
2022/12/24 07:13:01;;;;;;;7.13;1.48;;;16.40;1.00;;;;;;5113296;28;20047;-35
2022/12/24 07:15:28;;;;;;;6.53;2.28;;;16.50;1.00;;;;;;5113318;28;20450;-35
2022/12/24 07:17:56;;;;;;;14.25;1.80;;;16.60;1.00;;;;;;5113524;28;20075;-35
2022/12/24 07:20:23;;;;;;;6.18;1.67;;;16.70;1.00;;;;;;5113337;28;20092;-37
2022/12/24 07:22:49;;;;;;;4.93;1.90;;;16.70;1.00;;;;;;5095007;28;20119;-35
2022/12/24 07:25:16;;;;;;;8.73;1.58;;;16.80;1.00;;;;;;5113111;28;20069;-35
2022/12/24 07:27:43;;;;;;;11.75;2.75;;;16.80;1.00;;;;;;5090788;28;20496;-35
2022/12/24 07:30:10;;;;;;;21.92;3.47;;;16.80;1.00;;;;;;5100786;28;20044;-36
2022/12/24 07:32:37;;;;;;;14.90;2.88;;;16.80;1.00;;;;;;5088770;28;20092;-35
2022/12/24 07:35:05;;;;;;;15.95;3.20;;;16.80;1.00;;;;;;5086461;28;20478;-35
2022/12/24 07:37:31;;;;;;;10.40;2.65;;;16.80;1.00;;;;;;5072423;28;20040;-36
2022/12/24 07:39:58;;;;;;;14.70;3.20;;;16.90;1.00;;;;;;5100792;28;20040;-35
2022/12/24 07:42:25;;;;;;;12.73;3.20;;;16.90;1.00;;;;;;5098654;28;20059;-35
2022/12/24 07:44:52;;;;;;;17.70;3.45;;;16.80;1.00;;;;;;5079350;28;20035;-35
2022/12/24 07:47:19;;;;;;;13.50;2.30;;;16.90;1.00;;;;;;5101499;28;20521;-36
2022/12/24 07:49:46;;;;;;;10.38;2.95;;;16.90;1.00;;;;;;5105814;28;20040;-35
2022/12/24 07:52:12;;;;;;;13.30;2.83;;;16.90;1.00;;;;;;5112657;28;20572;-35
2022/12/24 07:54:39;;;;;;;13.93;3.45;;;16.90;1.00;;;;;;5112546;28;20061;-36
2022/12/24 07:57:06;;;;;;;10.80;3.15;;;16.80;1.00;;;;;;5112642;28;20075;-36
2022/12/24 07:59:33;;;;;;;13.73;3.15;;;16.80;1.00;;;;;;5111233;28;20441;-36
2022/12/24 08:02:03;;;;;;;10.48;2.95;;;16.80;1.00;;;;;;5111989;28;20101;-35
2022/12/24 08:04:37;;;;;;;12.43;3.30;;;16.80;1.00;;;;;;5092296;28;20039;-36
2022/12/24 08:07:27;;;;;;;13.80;2.85;;;16.80;1.00;;;;;;5097361;28;20104;-37
2022/12/24 08:10:24;;;;;;;7.63;2.60;;;16.80;1.00;;;;;;5081495;28;20479;-35
2022/12/24 08:12:51;;;;;;;9.60;3.08;;;16.70;1.00;;;;;;5095684;28;20067;-36
2022/12/24 08:15:18;;;;;;;9.95;2.50;;;16.70;1.00;;;;;;5093596;28;20040;-36
2022/12/24 08:17:45;;;;;;;10.57;2.30;;;16.70;1.00;;;;;;5106533;28;20051;-36
2022/12/24 08:20:12;;;;;;;11.15;2.90;;;16.70;1.00;;;;;;5111098;28;20044;-35
2022/12/24 08:22:38;;;;;;;11.98;2.45;;;16.70;1.00;;;;;;5111785;28;20047;-35
2022/12/24 08:25:06;;;;;;;9.90;3.50;;;16.70;1.00;;;;;;5094167;28;20093;-35
2022/12/24 08:27:33;;;;;;;11.52;2.67;;;16.60;1.00;;;;;;5094263;28;20039;-36
2022/12/24 08:30:00;;;;;;;11.60;4.13;;;16.60;1.00;;;;;;5112306;28;20448;-36
2022/12/24 08:32:26;;;;;;;12.23;2.15;;;16.60;1.00;;;;;;5112012;28;20071;-37
2022/12/24 08:34:53;;;;;;;10.45;2.03;;;16.60;1.00;;;;;;5093566;28;20043;-36
2022/12/24 08:37:20;;;;;;;11.35;2.70;;;16.60;1.00;;;;;;5112226;28;20138;-36
2022/12/24 08:39:47;;;;;;;14.70;2.78;;;16.50;1.00;;;;;;5093688;28;20039;-35
2022/12/24 08:42:17;;;;;;;7.53;2.40;;;16.50;1.00;;;;;;5093973;28;20046;-36
2022/12/24 08:44:44;;;;;;;6.68;1.90;;;16.50;1.00;;;;;;5093564;28;20090;-36
2022/12/24 08:48:01;;;;;;;15.75;3.13;;;16.50;1.00;;;;;;5096050;28;20040;-37
2022/12/24 08:50:28;;;;;;;13.38;3.28;;;16.40;1.00;;;;;;5094496;28;20036;-35
2022/12/24 08:52:55;;;;;;;26.00;3.30;;;16.40;1.00;;;;;;5091463;28;20123;-35
2022/12/24 08:55:22;;;;;;;23.27;3.60;;;16.40;1.00;;;;;;5101497;28;20055;-36
2022/12/24 08:57:48;;;;;;;21.95;4.10;;;16.40;1.00;;;;;;5111798;28;20050;-36
2022/12/24 09:00:15;;;;;;;21.85;3.83;;;16.30;1.00;;;;;;5106012;28;20123;-36
2022/12/24 09:10:04;;;;;;;18.77;3.50;;;16.20;1.00;;;;;;5073811;28;20082;-36
2022/12/24 09:12:57;;;;;;;18.45;3.78;;;16.20;1.00;;;;;;5071139;28;20584;-35
2022/12/24 09:15:41;;;;;;;21.95;2.83;;;16.10;1.00;;;;;;5060561;28;20171;-35
2022/12/24 09:18:42;;;;;;;15.35;3.40;;;16.10;1.00;;;;;;5083360;28;20044;-35
2022/12/24 09:21:28;;;;;;;19.75;3.58;;;16.10;1.00;;;;;;5092831;28;20043;-35
2022/12/24 09:24:23;;;;;;;12.48;3.28;;;16.10;1.00;;;;;;5110909;28;20460;-36
2022/12/24 09:27:07;;;;;;;13.45;2.40;;;16.10;1.00;;;;;;5106240;28;20506;-36
2022/12/24 09:30:10;;;;;;;11.45;2.95;;;16.00;1.00;;;;;;5100021;28;20084;-36
2022/12/24 09:33:40;;;;;;;15.38;2.72;;;16.00;1.00;;;;;;5081061;28;20124;-36
2022/12/24 09:37:09;;;;;;;12.70;3.40;;;16.00;1.00;;;;;;5115039;28;20039;-35
2022/12/24 09:39:55;;;;;;;18.52;3.15;;;16.00;1.00;;;;;;5087832;28;20075;-35
2022/12/24 09:42:41;;;;;;;10.38;2.50;;;16.00;1.00;;;;;;5096808;28;20039;-35
2022/12/24 09:45:19;;;;;;;10.68;2.33;;;16.00;1.00;;;;;;5115047;28;20097;-36
2022/12/24 09:47:48;;;;;;;16.45;3.10;;;16.00;1.00;;;;;;5114985;28;20043;-36
2022/12/24 09:50:37;;;;;;;9.77;2.38;;;16.00;1.00;;;;;;5097257;28;20061;-35
2022/12/24 09:53:14;;;;;;;24.48;3.03;;;16.00;1.00;;;;;;5114668;28;20119;-36
2022/12/24 09:55:50;;;;;;;11.40;2.55;;;16.00;1.00;;;;;;5097051;28;20383;-35
2022/12/24 09:58:34;;;;;;;16.17;3.55;;;16.00;1.00;;;;;;5114949;28;20035;-36
2022/12/24 10:01:01;;;;;;;12.55;2.50;;;16.00;1.00;;;;;;5114953;28;20127;-35
2022/12/24 10:03:28;;;;;;;12.65;2.55;;;16.00;1.00;;;;;;5114637;28;20036;-35
2022/12/24 10:06:07;;;;;;;15.07;3.08;;;15.90;1.00;;;;;;5114631;28;20032;-35
2022/12/24 10:08:50;;;;;;;12.32;4.43;;;15.90;1.00;;;;;;5096614;28;20039;-35
2022/12/24 10:11:26;;;;;;;12.02;2.47;;;15.90;1.00;;;;;;5114639;28;20505;-36
2022/12/24 10:14:16;;;;;;;14.95;3.05;;;15.90;1.00;;;;;;5114361;28;20036;-36
2022/12/24 10:16:56;;;;;;;10.07;1.67;;;15.90;1.00;;;;;;5096506;28;20048;-36
2022/12/24 10:19:48;;;;;;;12.98;2.20;;;15.90;1.00;;;;;;5114443;28;20510;-36
2022/12/24 10:22:37;;;;;;;11.15;3.45;;;15.90;1.00;;;;;;5114213;28;20046;-37
2022/12/24 10:25:42;;;;;;;8.38;2.78;;;15.90;1.00;;;;;;5114358;28;20046;-36
2022/12/24 10:28:52;;;;;;;8.63;2.13;;;16.00;1.00;;;;;;5097477;28;20498;-36
2022/12/24 10:31:35;;;;;;;12.50;2.58;;;15.90;1.00;;;;;;5114142;28;20050;-45
2022/12/24 10:34:14;;;;;;;7.95;1.88;;;15.90;1.00;;;;;;5095996;28;20417;-35
2022/12/24 10:36:46;;;;;;;9.80;3.28;;;15.90;1.00;;;;;;5095958;28;20436;-35
2022/12/24 10:39:26;;;;;;;12.02;2.28;;;15.90;1.00;;;;;;5113141;28;20052;-35
2022/12/24 10:42:04;;;;;;;15.40;2.30;;;15.90;1.00;;;;;;5095509;28;20047;-35
2022/12/24 10:44:54;;;;;;;12.43;3.33;;;15.90;1.00;;;;;;5113912;28;20082;-35
2022/12/24 10:47:43;;;;;;;10.48;2.88;;;15.90;1.00;;;;;;5113050;28;20052;-35
2022/12/24 10:50:32;;;;;;;7.47;1.58;;;15.90;1.00;;;;;;5113896;28;20086;-37
2022/12/24 10:53:28;;;;;;;9.02;2.08;;;15.90;1.00;;;;;;5113699;28;20043;-37
2022/12/24 10:56:07;;;;;;;6.07;2.63;;;15.90;1.00;;;;;;5113616;28;20044;-35
2022/12/24 10:58:59;;;;;;;9.55;1.60;;;15.90;1.00;;;;;;5095555;28;20097;-37
2022/12/24 11:01:53;;;;;;;11.05;2.17;;;15.90;1.00;;;;;;5113499;28;20036;-36
2022/12/24 11:04:29;;;;;;;7.75;1.83;;;15.90;1.00;;;;;;5113394;28;20076;-36
2022/12/24 11:07:22;;;;;;;9.77;1.83;;;15.90;1.00;;;;;;5095107;28;20050;-36
2022/12/24 11:10:21;;;;;;;8.65;2.10;;;15.90;1.00;;;;;;5110877;28;20040;-36
2022/12/24 11:13:36;;;;;;;9.73;2.13;;;15.80;1.00;;;;;;5094216;28;20108;-36
2022/12/24 11:20:02;;;;;;;4.22;1.52;;;15.80;1.00;;;;;;5113415;28;20063;-35
2022/12/24 11:22:34;;;;;;;5.72;1.55;;;15.80;1.00;;;;;;5112880;28;20074;-35
2022/12/24 11:25:28;;;;;;;5.07;1.75;;;15.80;1.00;;;;;;5113153;28;20122;-36
2022/12/24 11:28:29;;;;;;;6.22;1.70;;;15.80;1.00;;;;;;5094885;28;20510;-36
2022/12/24 11:34:34;;;;;;;7.75;1.88;;;15.80;1.00;;;;;;5094499;28;20051;-35
2022/12/24 11:37:22;;;;;;;10.30;1.85;;;15.80;1.00;;;;;;5113050;28;20542;-36
2022/12/24 11:40:00;;;;;;;5.82;1.42;;;15.80;1.00;;;;;;5112853;28;20444;-36
2022/12/24 11:42:41;;;;;;;5.97;1.55;;;15.80;1.00;;;;;;5094592;28;20035;-36
2022/12/24 11:45:23;;;;;;;10.52;2.00;;;15.80;1.00;;;;;;5112919;28;20043;-35
2022/12/24 11:47:55;;;;;;;4.97;1.27;;;15.80;1.00;;;;;;5112399;28;20499;-36
2022/12/24 11:50:36;;;;;;;8.05;1.92;;;15.70;1.00;;;;;;5112453;28;20425;-36
2022/12/24 11:53:20;;;;;;;6.55;2.70;;;15.80;1.00;;;;;;5112264;28;20028;-36
2022/12/24 11:55:54;;;;;;;7.82;1.48;;;15.70;1.00;;;;;;5112647;28;20036;-36
2022/12/24 11:58:42;;;;;;;10.80;2.10;;;15.70;1.00;;;;;;5112762;28;20036;-35
2022/12/24 12:01:29;;;;;;;9.48;2.30;;;15.70;1.00;;;;;;5077533;28;20040;-36
2022/12/24 12:04:19;;;;;;;11.65;3.08;;;15.70;1.00;;;;;;5112277;28;20132;-36
2022/12/24 12:06:49;;;;;;;9.57;2.92;;;15.70;1.00;;;;;;5112380;28;20101;-37
2022/12/24 12:09:27;;;;;;;11.38;1.88;;;15.70;1.00;;;;;;5112280;28;20054;-36
2022/12/24 12:12:03;;;;;;;8.20;2.10;;;15.70;1.00;;;;;;5112444;28;20119;-36
2022/12/24 12:14:47;;;;;;;10.27;1.90;;;15.70;1.00;;;;;;5112177;28;20043;-35
2022/12/24 12:17:38;;;;;;;4.43;1.27;;;15.70;1.00;;;;;;5094448;28;20521;-36
2022/12/24 12:20:09;;;;;;;8.77;1.80;;;15.70;1.00;;;;;;5112402;28;20463;-44
2022/12/24 12:23:01;;;;;;;6.28;1.65;;;15.70;1.00;;;;;;5112177;28;20047;-44
2022/12/24 12:25:45;;;;;;;5.90;1.42;;;15.70;1.00;;;;;;5112242;28;20040;-44
2022/12/24 12:28:39;;;;;;;5.95;1.55;;;15.70;1.00;;;;;;5112649;28;20050;-44
2022/12/24 12:31:08;;;;;;;6.10;1.88;;;15.70;1.00;;;;;;5102015;28;20056;-44
2022/12/24 12:33:47;;;;;;;4.53;1.52;;;15.70;1.00;;;;;;5111885;28;20563;-42
2022/12/24 12:36:18;;;;;;;7.80;1.23;;;15.70;1.00;;;;;;5094066;28;20054;-45
2022/12/24 12:38:45;;;;;;;5.07;0.98;;;15.70;1.00;;;;;;5112588;28;20438;-45
2022/12/24 12:41:22;;;;;;;7.60;1.73;;;15.70;1.00;;;;;;5111969;28;20043;-43
2022/12/24 12:44:07;;;;;;;8.18;1.77;;;15.70;1.00;;;;;;5111887;28;20040;-44
2022/12/24 12:47:07;;;;;;;6.53;1.48;;;15.70;1.00;;;;;;5112097;28;20383;-42
2022/12/24 12:50:05;;;;;;;6.90;1.55;;;15.70;1.00;;;;;;5112123;28;20040;-45
2022/12/24 12:52:55;;;;;;;6.50;1.30;;;15.70;1.00;;;;;;5111961;28;20040;-42
2022/12/24 12:55:22;;;;;;;6.30;1.58;;;15.70;1.00;;;;;;5111976;28;20059;-44
2022/12/24 12:58:03;;;;;;;6.03;1.25;;;15.70;1.00;;;;;;5094046;28;20058;-44
2022/12/24 13:00:54;;;;;;;5.25;2.05;;;15.60;1.00;;;;;;5096830;28;20040;-44
2022/12/24 13:04:10;;;;;;;8.30;1.63;;;15.70;1.00;;;;;;5061938;28;20448;-43
2022/12/24 13:07:39;;;;;;;4.60;0.90;;;15.70;1.00;;;;;;5100846;28;20048;-44
2022/12/24 13:10:32;;;;;;;6.47;1.75;;;15.60;1.00;;;;;;5115775;28;20035;-44
2022/12/24 13:13:14;;;;;;;8.15;2.00;;;15.60;1.00;;;;;;5115531;28;20043;-44
2022/12/24 13:15:58;;;;;;;5.90;1.55;;;15.60;1.00;;;;;;5115840;28;20487;-45
2022/12/24 13:18:32;;;;;;;8.85;2.65;;;15.60;1.00;;;;;;5115762;28;20608;-43
2022/12/24 13:20:59;;;;;;;6.57;1.25;;;15.60;1.00;;;;;;5097438;28;20124;-48
2022/12/24 13:23:27;;;;;;;5.28;1.13;;;15.60;1.00;;;;;;5080089;28;20047;-41
2022/12/24 13:25:56;;;;;;;6.03;1.30;;;15.60;1.00;;;;;;5115614;28;20081;-43
2022/12/24 13:28:23;;;;;;;9.38;2.10;;;15.60;1.00;;;;;;5115378;28;20036;-45
2022/12/24 13:31:13;;;;;;;9.68;1.80;;;15.60;1.00;;;;;;5115427;28;20111;-45
2022/12/24 13:33:40;;;;;;;5.25;0.95;;;15.60;1.00;;;;;;5096931;28;20050;-44
2022/12/24 13:36:17;;;;;;;6.90;1.23;;;15.60;1.00;;;;;;5115106;28;20039;-45
2022/12/24 13:38:55;;;;;;;5.03;1.20;;;15.60;1.00;;;;;;5096861;28;20063;-44
2022/12/24 13:41:35;;;;;;;5.32;1.00;;;15.60;1.00;;;;;;5115079;28;20046;-44
2022/12/24 13:44:11;;;;;;;5.20;1.98;;;15.60;1.00;;;;;;5097737;28;20131;-44
2022/12/24 13:47:05;;;;;;;8.85;2.53;;;15.60;1.00;;;;;;5114961;28;20126;-43
2022/12/24 13:49:32;;;;;;;4.95;1.83;;;15.60;1.00;;;;;;5115013;28;20078;-45
2022/12/24 13:52:27;;;;;;;3.33;1.23;;;15.60;1.00;;;;;;5114848;28;20122;-44